Latest Weather Observations for Geraldton Airport

IDW60801

Issued at 10:05 am WST Saturday 29 November 2014 (issued every 30 minutes, with the page automatically refreshed every 10 minutes)

About weather observations | Map of weather stations | Latest weather observations for WA | Other Formats
Station Details ID: 008315 Name: GERALDTON AIRPORT Lat: -28.80 Lon: 114.70 Height: 29.7 m
Data from the previous 72 hours. | See also: Recent months at Geraldton Airport
Date/Time
WST
Temp
°C
App
Temp
°C
Dew
Point
Rel
Hum
%
Delta-T
°C
Wind Press
QNH
hPa
Press
MSL
hPa
Rain
since 9 am
mm
Dir
 
Spd
km/h
Gust
km/h
Spd
kts
Gust
kts
29/10:00am 23.2 19.2 11.9 49 6.4 SSE 24 37 13 20 1013.8 - 0.0
29/09:30am 23.5 18.2 11.4 46 6.8 S 30 41 16 22 1013.7 - 0.0
29/09:00am 23.1 18.0 12.0 49 6.3 S 30 39 16 21 1013.8 1013.7 0.0
29/08:30am 22.2 17.4 11.7 51 5.9 S 28 39 15 21 1014.1 - 0.0
29/08:00am 22.2 17.9 11.9 52 5.8 SSE 26 35 14 19 1014.1 - 0.0
29/07:30am 21.5 17.1 11.7 53 5.5 SSE 26 35 14 19 1014.1 - 0.0
29/07:00am 20.7 17.1 11.7 56 5.0 SE 22 28 12 15 1014.1 - 0.0
29/06:30am 20.0 16.9 12.1 60 4.4 SE 20 26 11 14 1014.1 - 0.0
29/06:00am 19.6 16.7 12.3 62 4.1 SE 19 24 10 13 1014.0 1013.9 0.0
29/05:30am 19.7 16.7 12.6 63 4.0 SSE 20 26 11 14 1013.8 - 0.0
29/05:00am 19.7 17.8 13.0 65 3.8 SE 15 20 8 11 1013.6 - 0.0
29/04:30am 19.8 17.4 12.8 64 4.0 S 17 22 9 12 1013.4 - 0.0
29/04:00am 19.8 16.9 12.2 61 4.2 S 19 26 10 14 1013.4 - 0.0
29/03:30am 19.8 16.0 12.4 62 4.1 S 24 30 13 16 1013.6 - 0.0
29/03:00am 20.0 17.6 12.8 63 4.1 SSE 17 20 9 11 1013.5 1013.4 0.0
29/02:30am 20.0 16.4 12.9 63 4.0 SSE 24 32 13 17 1013.4 - 0.0
29/02:00am 19.7 16.8 13.0 65 3.8 S 20 28 11 15 1013.3 - 0.0
29/01:30am 20.1 16.6 13.3 65 3.9 S 24 30 13 16 1013.2 - 0.0
29/01:00am 20.1 17.3 13.1 64 4.0 S 20 28 11 15 1013.5 - 0.0
29/12:30am 20.2 17.5 13.6 66 3.8 S 20 24 11 13 1013.7 - 0.0
29/12:00am 20.3 17.6 13.5 65 3.9 S 20 28 11 15 1013.8 1013.7 0.0
 
Date/Time
WST
Temp
°C
App
Temp
°C
Dew
Point
Rel
Hum
%
Delta-T
°C
Wind Press
QNH
hPa
Press
MSL
hPa
Rain
since 9 am
mm
Dir
 
Spd
km/h
Gust
km/h
Spd
kts
Gust
kts
28/11:30pm 20.1 16.5 12.9 63 4.1 S 24 33 13 18 1014.0 - 0.0
28/11:00pm 20.6 16.9 14.0 66 3.8 S 26 33 14 18 1014.2 - 0.0
28/10:30pm 20.5 17.7 13.3 63 4.1 S 20 28 11 15 1014.4 - 0.0
28/10:00pm 20.8 16.8 12.9 60 4.5 S 26 33 14 18 1014.8 - 0.0
28/09:30pm 20.9 17.0 13.4 62 4.3 S 26 33 14 18 1014.8 - 0.0
28/09:00pm 21.0 17.3 13.8 63 4.2 S 26 35 14 19 1014.6 1014.5 0.0
28/08:30pm 20.8 16.5 13.3 62 4.3 S 28 41 15 22 1014.3 - 0.0
28/08:00pm 20.8 17.1 13.9 64 4.0 S 26 33 14 18 1014.1 - 0.0
28/07:30pm 21.0 17.0 14.0 64 4.1 S 28 37 15 20 1014.0 - 0.0
28/07:00pm 21.1 17.0 13.8 63 4.2 SSW 28 37 15 20 1013.8 - 0.0
28/06:30pm 21.3 17.4 14.4 64 4.0 SSW 28 39 15 21 1013.5 - 0.0
28/06:00pm 21.6 17.7 15.4 68 3.7 SSW 30 39 16 21 1013.2 1013.1 0.0
28/05:30pm 22.8 18.7 15.9 65 4.2 S 32 39 17 21 1012.7 - 0.0
28/05:00pm 22.3 19.1 16.4 69 3.6 S 28 37 15 20 1012.7 - 0.0
28/04:30pm 23.9 20.8 16.6 63 4.5 S 28 39 15 21 1012.3 - 0.0
28/04:00pm 23.5 20.2 17.0 67 4.0 SSW 30 39 16 21 1012.1 - 0.0
28/03:30pm 23.5 20.4 17.4 68 3.8 SSW 30 37 16 20 1012.3 - 0.0
28/03:00pm 23.6 20.1 17.5 68 3.8 SSW 32 37 17 20 1012.2 1012.1 0.0
28/02:30pm 24.5 21.9 17.7 66 4.3 SSW 28 41 15 22 1012.1 - 0.0
28/02:00pm 26.0 24.2 17.0 57 5.6 SW 22 32 12 17 1012.1 - 0.0
28/01:30pm 26.1 23.8 16.6 55 5.9 SW 24 33 13 18 1012.2 - 0.0
28/01:00pm 25.1 22.4 16.7 59 5.2 SW 26 35 14 19 1012.2 - 0.0
28/12:30pm 25.5 23.5 16.4 57 5.6 WSW 22 33 12 18 1012.2 - 0.0
28/12:00pm 25.6 23.6 16.4 56 5.7 W 22 30 12 16 1012.2 1012.1 0.0
28/11:30am 25.1 23.1 16.5 59 5.3 W 22 30 12 16 1012.3 - 0.0
28/11:00am 25.0 23.3 16.2 58 5.4 W 20 28 11 15 1012.2 - 0.0
28/10:30am 25.4 23.7 13.7 48 6.9 WSW 15 22 8 12 1012.2 - 0.0
28/10:00am 25.0 22.8 13.2 48 6.9 W 17 26 9 14 1012.3 - 0.0
28/09:30am 24.8 23.1 14.8 53 6.0 WSW 17 24 9 13 1012.3 - 0.0
28/09:00am 24.6 23.3 15.7 57 5.4 SW 17 24 9 13 1012.2 1012.1 0.0
28/08:30am 23.8 23.1 16.3 63 4.6 SW 15 22 8 12 1012.1 - 0.0
28/08:00am 23.1 22.8 17.3 70 3.6 SW 15 20 8 11 1012.0 - 0.0
28/07:30am 22.8 22.7 17.8 73 3.1 SSW 15 17 8 9 1011.7 - 0.0
28/07:07am 22.3 22.3 18.0 76 2.7 SW 15 19 8 10 1011.4 - 0.0
28/07:00am 22.4 22.5 18.3 77 2.6 SSW 15 20 8 11 1011.3 - 0.0
28/06:30am 22.1 22.8 18.0 77 2.6 SSW 11 19 6 10 1011.0 - 0.0
28/06:00am 21.8 23.0 18.2 80 2.2 SW 9 13 5 7 1010.7 1010.6 0.0
28/05:30am 21.4 22.5 17.9 80 2.2 SSW 9 11 5 6 1010.4 - 0.0
28/05:00am 21.5 24.3 18.0 80 2.2 CALM 0 2 0 1 1010.2 - 0.0
28/04:30am 21.5 24.0 18.2 81 2.1 N 2 6 1 3 1010.0 - 0.0
28/04:00am 21.5 23.1 17.8 79 2.3 N 6 9 3 5 1009.8 - 0.0
28/03:30am 21.4 22.8 17.8 80 2.2 N 7 9 4 5 1009.7 - 0.0
28/03:00am 21.4 22.8 17.7 79 2.3 N 7 9 4 5 1009.8 1009.7 0.0
28/02:30am 21.3 23.4 18.0 81 2.0 N 4 7 2 4 1009.7 - 0.0
28/02:00am 21.2 22.2 17.8 81 2.1 N 9 11 5 6 1009.6 - 0.0
28/01:30am 21.0 21.6 17.6 81 2.1 N 11 13 6 7 1009.6 - 0.0
28/01:00am 21.0 21.9 17.6 81 2.1 NNE 9 9 5 5 1009.6 - 0.0
28/12:30am 20.8 22.0 17.4 81 2.1 NNE 7 9 4 5 1009.8 - 0.0
28/12:00am 20.6 21.4 17.4 82 2.0 N 9 11 5 6 1009.9 1009.8 0.0
 
Date/Time
WST
Temp
°C
App
Temp
°C
Dew
Point
Rel
Hum
%
Delta-T
°C
Wind Press
QNH
hPa
Press
MSL
hPa
Rain
since 9 am
mm
Dir
 
Spd
km/h
Gust
km/h
Spd
kts
Gust
kts
27/11:30pm 19.8 20.8 16.8 83 1.8 NNE 7 9 4 5 1010.1 - 0.0
27/11:00pm 19.6 20.2 16.9 84 1.6 NE 9 11 5 6 1010.1 - 0.0
27/10:58pm 19.6 20.2 16.8 84 1.7 NE 9 9 5 5 1010.1 - 0.0
27/10:41pm 20.2 21.3 17.1 82 1.9 NNE 7 9 4 5 1010.1 - 0.0
27/10:30pm 19.6 20.6 16.8 84 1.7 N 7 9 4 5 1010.2 - 0.0
27/10:00pm 18.9 19.0 16.4 85 1.5 NNE 11 11 6 6 1009.8 - 0.0
27/09:30pm 19.0 21.3 16.7 86 1.4 CALM 0 0 0 0 1009.5 - 0.0
27/09:00pm 20.0 22.6 17.5 85 1.5 CALM 0 0 0 0 1009.8 1009.7 0.0
27/08:30pm 20.7 22.0 17.6 82 1.9 SSW 7 7 4 4 1009.7 - 0.0
27/08:00pm 20.8 21.7 17.6 82 2.0 SSW 9 13 5 7 1009.4 - 0.0
27/07:30pm 21.7 21.9 17.7 78 2.5 WSW 13 17 7 9 1009.3 - 0.0
27/07:00pm 22.2 22.4 17.7 75 2.8 WSW 13 19 7 10 1009.1 - 0.0
27/06:30pm 22.9 22.7 17.5 71 3.3 WSW 15 20 8 11 1008.9 - 0.0
27/06:00pm 23.5 22.7 17.0 67 4.0 W 17 20 9 11 1008.6 1008.6 0.0
27/05:30pm 24.4 22.9 16.8 62 4.7 WSW 20 28 11 15 1008.4 - 0.0
27/05:00pm 24.1 22.7 17.0 64 4.4 W 20 26 11 14 1008.4 - 0.0
27/04:30pm 25.4 23.8 16.4 57 5.5 WSW 20 30 11 16 1008.4 - 0.0
27/04:00pm 25.1 23.4 17.1 61 5.0 W 22 33 12 18 1008.5 - 0.0
27/03:30pm 25.8 24.5 17.3 59 5.3 W 20 32 11 17 1008.8 - 0.0
27/03:00pm 26.0 24.5 17.6 60 5.3 W 22 30 12 16 1008.9 1008.8 0.0
27/02:30pm 25.7 24.2 17.8 61 5.0 W 22 32 12 17 1009.1 - 0.0
27/02:00pm 26.4 23.7 15.6 51 6.6 W 24 33 13 18 1009.0 - 0.0
27/01:30pm 26.2 23.4 15.3 51 6.6 W 24 32 13 17 1009.1 - 0.0
27/01:00pm 26.0 24.0 16.5 55 5.9 WSW 22 33 12 18 1009.3 - 0.0
27/12:30pm 27.0 23.9 16.6 53 6.5 W 28 39 15 21 1009.4 - 0.0
27/12:00pm 26.1 23.1 16.7 56 5.8 W 28 37 15 20 1009.6 1009.5 0.0
27/11:30am 26.3 23.5 16.4 54 6.1 W 26 35 14 19 1009.6 - 0.0
27/11:00am 27.1 24.3 16.4 52 6.6 W 26 33 14 18 1009.7 - 0.0
27/10:30am 26.3 22.9 15.7 52 6.5 WNW 28 43 15 23 1009.9 - 0.0
27/10:00am 26.4 23.2 16.4 54 6.2 NW 28 37 15 20 1010.0 - 0.0
27/09:30am 26.0 23.0 16.7 56 5.8 NW 28 37 15 20 1010.2 - 0.0
27/09:00am 25.6 23.6 17.3 60 5.2 WNW 24 30 13 16 1010.4 1010.3 0.0
27/08:30am 25.3 23.5 17.8 63 4.7 NW 24 35 13 19 1010.5 - 0.0
27/08:00am 24.6 23.0 17.4 64 4.5 NW 22 30 12 16 1010.4 - 0.0
27/07:30am 24.6 22.6 17.4 64 4.5 NW 24 32 13 17 1010.0 - 0.0
27/07:00am 24.7 21.5 15.3 56 5.7 NW 26 35 14 19 1009.6 - 0.0
27/06:30am 23.8 21.1 14.5 56 5.5 N 22 26 12 14 1009.3 - 0.0
27/06:00am 22.3 19.9 14.3 60 4.7 NW 20 30 11 16 1009.1 1009.0 0.0
27/05:30am 21.7 19.2 14.0 61 4.5 NNE 20 28 11 15 1008.3 - 0.0
27/05:00am 21.4 17.3 13.9 62 4.4 NNE 28 33 15 18 1007.8 - 0.0
27/04:30am 21.9 16.8 13.6 59 4.8 NNE 33 43 18 23 1007.4 - 0.0
27/04:00am 22.6 17.4 13.5 56 5.3 NNE 33 41 18 22 1007.4 - 0.0
27/03:30am 22.7 17.1 13.4 55 5.4 NNE 35 44 19 24 1007.2 - 0.0
27/03:00am 22.9 16.5 13.3 54 5.6 NE 39 48 21 26 1007.2 1007.2 0.0
27/02:30am 23.3 16.9 13.1 52 5.9 NE 39 52 21 28 1007.2 - 0.0
27/02:00am 23.2 18.0 13.4 54 5.7 NE 33 46 18 25 1007.7 - 0.0
27/01:30am 23.4 18.9 13.7 54 5.7 NNE 30 35 16 19 1008.1 - 0.0
27/01:00am 23.2 18.8 14.0 56 5.4 NNE 30 35 16 19 1008.3 - 0.0
27/12:30am 23.4 19.1 14.4 57 5.3 NNE 30 39 16 21 1008.3 - 0.0
27/12:00am 23.5 18.9 14.7 57 5.2 NNE 32 39 17 21 1008.6 1008.6 0.0
 
Date/Time
WST
Temp
°C
App
Temp
°C
Dew
Point
Rel
Hum
%
Delta-T
°C
Wind Press
QNH
hPa
Press
MSL
hPa
Rain
since 9 am
mm
Dir
 
Spd
km/h
Gust
km/h
Spd
kts
Gust
kts
26/11:30pm 23.6 20.9 14.5 56 5.4 NNE 22 32 12 17 1009.0 - 0.0
26/11:00pm 23.9 21.0 15.1 58 5.3 NE 24 28 13 15 1009.4 - 0.0
26/10:30pm 25.0 22.8 14.8 53 6.1 ENE 20 24 11 13 1009.6 - 0.0
26/10:00pm 25.0 23.4 16.4 59 5.3 NNE 20 26 11 14 1010.1 - 0.0
26/09:30pm 25.2 23.4 16.1 57 5.6 NNE 20 28 11 15 1010.2 - 0.0
26/09:00pm 23.8 24.9 17.0 65 4.2 NNW 7 11 4 6 1010.3 1010.2 0.0
26/08:41pm 23.9 23.9 17.3 66 4.1 N 13 17 7 9 1010.2 - 0.0
26/08:30pm 24.0 23.7 17.3 66 4.2 N 15 19 8 10 1010.1 - 0.0
26/08:00pm 24.3 24.2 16.9 63 4.6 NNW 13 19 7 10 1009.6 - 0.0
26/07:30pm 24.6 24.2 16.3 60 5.1 NW 13 17 7 9 1009.4 - 0.0
26/07:00pm 25.5 24.7 16.2 56 5.7 NNW 15 19 8 10 1009.3 - 0.0
26/06:30pm 27.8 25.2 10.7 34 9.7 N 15 24 8 13 1008.8 - 0.0
26/06:00pm 27.5 26.7 12.9 40 8.6 NNE 9 15 5 8 1008.3 1008.3 0.0
26/05:30pm 26.6 27.2 14.3 46 7.3 N 4 11 2 6 1008.3 - 0.0
26/05:00pm 26.8 24.4 14.5 46 7.4 WSW 20 30 11 16 1007.6 - 0.0
26/04:30pm 27.6 26.0 13.9 43 8.2 WSW 15 20 8 11 1007.3 - 0.0
26/04:00pm 27.4 22.6 13.0 41 8.5 WNW 30 41 16 22 1006.2 - 0.0
26/03:30pm 28.0 23.1 13.8 41 8.5 WNW 32 44 17 24 1006.1 - 0.0
26/03:11pm 28.0 22.4 13.4 40 8.6 WNW 35 54 19 29 1006.2 - 0.0
26/03:00pm 28.1 21.3 14.4 43 8.3 WNW 43 56 23 30 1005.7 1005.7 0.0
26/02:30pm 28.0 21.3 14.7 44 8.0 WNW 43 54 23 29 1005.5 - 0.0
26/02:00pm 28.3 22.4 14.8 43 8.2 WNW 39 46 21 25 1006.3 - 0.0
26/01:30pm 28.6 23.2 14.9 43 8.3 WNW 37 44 20 24 1006.4 - 0.0
26/01:00pm 28.9 22.8 15.3 43 8.3 WNW 41 52 22 28 1006.5 - 0.0
26/12:30pm 28.3 22.1 15.0 44 8.1 WNW 41 52 22 28 1006.4 - 0.0
26/12:00pm 28.8 23.2 15.5 44 8.2 WNW 39 50 21 27 1006.4 1006.4 0.0
26/11:30am 28.9 23.8 16.7 47 7.6 WNW 39 46 21 25 1006.5 - 0.0
26/11:00am 32.4 27.5 15.2 35 10.7 NW 35 43 19 23 1006.2 - 0.0
26/10:49am 33.5 28.0 14.6 32 11.6 NW 37 46 20 25 1006.1 - 0.0
26/10:30am 36.9 29.7 10.5 20 15.5 N 39 50 21 27 1006.2 - 0.0

Other Formats:

Comma delimited format used in spreadsheet applications
http://www.bom.gov.au/fwo/IDW60801/IDW60801.94403.axf

JavaScript Object Notation format (JSON) in row-major order
http://www.bom.gov.au/fwo/IDW60801/IDW60801.94403.json